createdAt,value
2018-08-13T00:00:58.484Z,19.40
2018-08-13T00:03:26.941Z,19.40
2018-08-13T00:05:55.365Z,19.40
2018-08-13T00:08:23.833Z,19.40
2018-08-13T00:10:52.392Z,19.40
2018-08-13T00:13:20.927Z,19.30
2018-08-13T00:15:49.476Z,19.20
2018-08-13T00:18:17.984Z,19.20
2018-08-13T00:20:46.472Z,19.20
2018-08-13T00:23:14.953Z,19.10
2018-08-13T00:25:43.414Z,19.10
2018-08-13T00:28:12.001Z,19.20
2018-08-13T00:30:40.577Z,19.20
2018-08-13T00:33:10.508Z,19.20
2018-08-13T00:35:39.073Z,19.20
2018-08-13T00:38:07.961Z,19.20
2018-08-13T00:40:36.529Z,19.20
2018-08-13T00:43:05.788Z,19.10
2018-08-13T00:45:34.253Z,19.00
2018-08-13T00:48:02.744Z,18.90
2018-08-13T00:50:31.249Z,18.90
2018-08-13T00:52:59.664Z,18.80
2018-08-13T00:55:28.136Z,18.80
2018-08-13T00:57:56.612Z,18.80
2018-08-13T01:00:25.101Z,18.70
2018-08-13T01:02:53.601Z,18.70
2018-08-13T01:05:22.144Z,18.70
2018-08-13T01:07:50.665Z,18.60
2018-08-13T01:10:20.068Z,18.60
2018-08-13T01:12:48.760Z,18.50
2018-08-13T01:15:18.513Z,18.50
2018-08-13T01:17:48.215Z,18.50
2018-08-13T01:20:20.194Z,18.50
2018-08-13T01:22:48.677Z,18.50
2018-08-13T01:25:18.345Z,18.50
2018-08-13T01:27:46.841Z,18.50
2018-08-13T01:30:16.894Z,18.60
2018-08-13T01:32:45.415Z,18.60
2018-08-13T01:35:13.905Z,18.60
2018-08-13T01:37:42.353Z,18.60
2018-08-13T01:40:11.715Z,18.60
2018-08-13T01:42:40.223Z,18.60
2018-08-13T01:45:10.469Z,18.60
2018-08-13T01:47:39.319Z,18.70
2018-08-13T01:50:09.971Z,18.70
2018-08-13T01:52:38.405Z,18.70
2018-08-13T01:55:08.249Z,18.80
2018-08-13T01:57:36.699Z,18.90
2018-08-13T02:00:08.072Z,18.90
2018-08-13T02:02:36.544Z,18.90
2018-08-13T02:05:05.853Z,18.90
2018-08-13T02:07:34.372Z,18.90
2018-08-13T02:10:02.912Z,18.80
2018-08-13T02:12:31.352Z,18.80
2018-08-13T02:14:59.853Z,18.70
2018-08-13T02:17:28.320Z,18.70
2018-08-13T02:19:56.769Z,18.60
2018-08-13T02:22:25.304Z,18.60
2018-08-13T02:24:53.740Z,18.60
2018-08-13T02:27:22.220Z,18.50
2018-08-13T02:29:50.676Z,18.40
2018-08-13T02:32:19.163Z,18.40
2018-08-13T02:34:47.637Z,18.50
2018-08-13T02:37:16.129Z,18.40
2018-08-13T02:39:44.572Z,18.50
2018-08-13T02:42:13.315Z,18.50
2018-08-13T02:44:41.776Z,18.50
2018-08-13T02:47:10.291Z,18.40
2018-08-13T02:49:38.761Z,18.50
2018-08-13T02:52:07.491Z,18.50
2018-08-13T02:54:35.954Z,18.50
2018-08-13T02:57:04.522Z,18.40
2018-08-13T02:59:32.958Z,18.50
2018-08-13T03:02:01.403Z,18.50
2018-08-13T03:04:29.926Z,18.50
2018-08-13T03:06:58.337Z,18.60
2018-08-13T03:09:26.749Z,18.60
2018-08-13T03:11:55.188Z,18.70
2018-08-13T03:14:23.612Z,18.70
2018-08-13T03:16:52.133Z,18.70
2018-08-13T03:19:20.607Z,18.80
2018-08-13T03:21:49.129Z,18.80
2018-08-13T03:24:17.609Z,18.80
2018-08-13T03:26:46.068Z,18.90
2018-08-13T03:29:14.500Z,18.90
2018-08-13T03:31:42.985Z,19.00
2018-08-13T03:34:11.440Z,18.90
2018-08-13T03:36:39.925Z,18.90
2018-08-13T03:39:10.626Z,18.90
2018-08-13T03:41:40.117Z,19.00
2018-08-13T03:44:09.101Z,19.00
2018-08-13T03:46:37.953Z,18.90
2018-08-13T03:49:06.897Z,19.00
2018-08-13T03:51:35.337Z,18.90
2018-08-13T03:54:03.823Z,18.90
2018-08-13T03:56:32.280Z,18.80
2018-08-13T03:59:00.748Z,18.80
2018-08-13T04:01:29.304Z,18.80
2018-08-13T04:03:57.780Z,18.80
2018-08-13T04:06:26.276Z,18.60
2018-08-13T04:08:54.700Z,18.60
2018-08-13T04:11:23.149Z,18.50
2018-08-13T04:13:51.607Z,18.40
2018-08-13T04:16:20.053Z,18.30
2018-08-13T04:18:48.481Z,18.10
2018-08-13T04:21:16.929Z,18.00
2018-08-13T04:23:45.433Z,17.90
2018-08-13T04:26:13.874Z,17.70
2018-08-13T04:28:42.348Z,17.60
2018-08-13T04:31:10.792Z,17.40
2018-08-13T04:33:39.306Z,17.30
2018-08-13T04:36:07.757Z,17.30
2018-08-13T04:38:36.226Z,17.30
2018-08-13T04:41:04.693Z,17.30
2018-08-13T04:43:33.161Z,17.30
2018-08-13T04:46:01.626Z,17.30
2018-08-13T04:48:30.233Z,17.30
2018-08-13T04:50:58.665Z,17.30
2018-08-13T04:53:27.089Z,17.30
2018-08-13T04:55:55.578Z,17.40
2018-08-13T04:58:24.007Z,17.30
2018-08-13T05:00:52.440Z,17.40
2018-08-13T05:03:20.897Z,17.40
2018-08-13T05:05:49.369Z,17.30
2018-08-13T05:08:17.800Z,17.30
2018-08-13T05:10:46.285Z,17.20
2018-08-13T05:13:14.820Z,17.20
2018-08-13T05:15:43.268Z,17.20
2018-08-13T05:18:11.756Z,17.20
2018-08-13T05:20:40.184Z,17.20
2018-08-13T05:23:08.636Z,17.30
2018-08-13T05:25:37.106Z,17.30
2018-08-13T05:28:05.960Z,17.40
2018-08-13T05:30:34.417Z,17.50
2018-08-13T05:33:02.853Z,17.50
2018-08-13T05:35:31.313Z,17.50
2018-08-13T05:37:59.749Z,17.60
2018-08-13T05:40:28.283Z,17.50
2018-08-13T05:42:56.725Z,17.50
2018-08-13T05:45:25.185Z,17.30
2018-08-13T05:47:53.720Z,17.20
2018-08-13T05:50:22.161Z,16.90
2018-08-13T05:52:50.699Z,16.80
2018-08-13T05:55:19.132Z,16.60
2018-08-13T05:57:47.589Z,16.60
2018-08-13T06:00:16.065Z,16.50
2018-08-13T06:02:44.523Z,16.60
2018-08-13T06:05:13.649Z,16.50
2018-08-13T06:07:42.613Z,16.50
2018-08-13T06:10:12.177Z,16.60
2018-08-13T06:12:41.160Z,16.60
2018-08-13T06:15:11.298Z,16.60
2018-08-13T06:17:39.785Z,16.60
2018-08-13T06:20:10.185Z,16.60
2018-08-13T06:22:39.475Z,16.70
2018-08-13T06:25:08.065Z,16.70
2018-08-13T06:27:36.537Z,16.70
2018-08-13T06:30:08.208Z,16.80
2018-08-13T06:32:36.685Z,16.70
2018-08-13T06:35:05.276Z,16.80
2018-08-13T06:37:33.767Z,16.80
2018-08-13T06:40:02.287Z,16.90
2018-08-13T06:42:30.776Z,17.00
2018-08-13T06:44:59.206Z,17.00
2018-08-13T06:47:27.716Z,17.00
2018-08-13T06:49:56.179Z,17.10
2018-08-13T06:52:24.665Z,17.20
2018-08-13T06:54:53.117Z,17.20
2018-08-13T06:57:21.577Z,17.30
2018-08-13T06:59:50.066Z,17.40
2018-08-13T07:02:18.543Z,17.50
2018-08-13T07:04:47.004Z,17.50
2018-08-13T07:07:15.502Z,17.50
2018-08-13T07:09:43.946Z,17.50
2018-08-13T07:12:13.303Z,17.50
2018-08-13T07:14:41.829Z,17.60
2018-08-13T07:17:10.292Z,17.60
2018-08-13T07:19:38.774Z,17.60
2018-08-13T07:22:07.343Z,17.60
2018-08-13T07:24:35.772Z,17.60
2018-08-13T07:27:04.236Z,17.50
2018-08-13T07:29:32.717Z,17.50
2018-08-13T07:32:01.212Z,17.40
2018-08-13T07:34:29.682Z,17.40
2018-08-13T07:36:58.169Z,17.40
2018-08-13T07:39:26.638Z,17.40
2018-08-13T07:41:55.056Z,17.50
2018-08-13T07:44:23.531Z,17.40
2018-08-13T07:46:51.996Z,17.40
2018-08-13T07:49:20.498Z,17.40
2018-08-13T07:51:49.086Z,17.40
2018-08-13T07:54:17.824Z,17.40
2018-08-13T07:56:46.273Z,17.50
2018-08-13T07:59:14.730Z,17.50
2018-08-13T08:01:43.188Z,17.60
2018-08-13T08:04:11.646Z,17.60
2018-08-13T08:06:40.549Z,17.70
2018-08-13T08:09:11.115Z,17.70
2018-08-13T08:11:39.772Z,17.60
2018-08-13T08:14:08.842Z,17.70
2018-08-13T08:16:37.345Z,17.80
2018-08-13T08:19:05.813Z,17.90
2018-08-13T08:21:34.311Z,17.90
2018-08-13T08:24:02.916Z,18.10
2018-08-13T08:26:31.378Z,18.30
2018-08-13T08:28:59.884Z,18.40
2018-08-13T08:31:28.373Z,18.70
2018-08-13T08:33:56.923Z,18.80
2018-08-13T08:36:25.388Z,19.00
2018-08-13T08:38:53.888Z,19.20
2018-08-13T08:41:22.349Z,19.20
2018-08-13T08:43:50.879Z,19.20
2018-08-13T08:46:19.376Z,19.20
2018-08-13T08:48:47.876Z,19.10
2018-08-13T08:51:16.401Z,19.10
2018-08-13T08:53:44.855Z,19.10
2018-08-13T08:56:13.320Z,19.20
2018-08-13T08:58:41.805Z,19.40
2018-08-13T09:01:10.256Z,19.60
2018-08-13T09:03:38.717Z,19.80
2018-08-13T09:06:07.226Z,20.10
2018-08-13T09:08:35.764Z,20.50
2018-08-13T09:11:04.312Z,21.40
2018-08-13T09:13:32.758Z,21.80
2018-08-13T09:16:01.233Z,21.60
2018-08-13T09:18:40.882Z,21.30
2018-08-13T09:21:20.877Z,21.10
2018-08-13T09:24:00.682Z,21.20
2018-08-13T09:26:40.422Z,21.00
2018-08-13T09:29:20.066Z,21.20
2018-08-13T09:32:32.301Z,21.40
2018-08-13T09:35:24.461Z,21.40
2018-08-13T09:37:53.472Z,20.80
2018-08-13T09:40:22.088Z,20.60
2018-08-13T09:42:50.658Z,20.20
2018-08-13T09:45:19.184Z,19.70
2018-08-13T09:47:47.698Z,19.30
2018-08-13T09:50:17.317Z,19.10
2018-08-13T09:52:46.385Z,19.10
2018-08-13T09:55:15.504Z,19.10
2018-08-13T09:57:45.105Z,19.00
2018-08-13T10:00:19.809Z,19.00
2018-08-13T10:02:49.012Z,19.00
2018-08-13T10:05:17.845Z,19.00
2018-08-13T10:07:46.798Z,19.00
2018-08-13T10:10:15.999Z,19.00
2018-08-13T10:12:45.198Z,19.00
2018-08-13T10:15:14.201Z,18.90
2018-08-13T10:17:42.711Z,18.80
2018-08-13T10:20:19.060Z,18.70
2018-08-13T10:22:47.710Z,18.60
2018-08-13T10:25:16.198Z,18.50
2018-08-13T10:27:44.679Z,18.50
2018-08-13T10:30:15.449Z,18.50
2018-08-13T10:32:44.001Z,18.60
2018-08-13T10:35:12.520Z,18.60
2018-08-13T10:37:41.547Z,18.60
2018-08-13T10:40:14.944Z,18.60
2018-08-13T10:42:43.457Z,18.70
2018-08-13T10:45:12.002Z,18.70
2018-08-13T10:47:40.461Z,19.00
2018-08-13T10:50:10.821Z,19.50
2018-08-13T10:52:39.692Z,20.50
2018-08-13T10:55:09.106Z,20.70
2018-08-13T10:57:37.572Z,21.00
2018-08-13T11:00:08.348Z,20.70
2018-08-13T11:02:36.794Z,20.60
2018-08-13T11:05:06.802Z,20.50
2018-08-13T11:07:35.323Z,20.60
2018-08-13T11:10:03.882Z,20.60
2018-08-13T11:12:32.401Z,20.70
2018-08-13T11:15:00.946Z,20.80
2018-08-13T11:17:29.444Z,21.00
2018-08-13T11:19:58.041Z,21.20
2018-08-13T11:22:26.535Z,21.00
2018-08-13T11:24:54.994Z,21.20
2018-08-13T11:27:23.421Z,22.20
2018-08-13T11:29:51.967Z,23.10
2018-08-13T11:32:20.444Z,23.00
2018-08-13T11:34:48.940Z,23.00
2018-08-13T11:37:17.403Z,22.90
2018-08-13T11:39:45.885Z,22.50
2018-08-13T11:42:14.345Z,22.10
2018-08-13T11:44:42.801Z,21.90
2018-08-13T11:47:11.291Z,21.70
2018-08-13T11:49:39.771Z,21.70
2018-08-13T11:52:08.246Z,22.00
2018-08-13T11:54:36.781Z,22.40
2018-08-13T11:57:05.624Z,22.40
2018-08-13T11:59:34.111Z,22.10
2018-08-13T12:02:02.600Z,22.20
2018-08-13T12:04:31.093Z,22.10
2018-08-13T12:06:59.552Z,22.40
2018-08-13T12:09:28.004Z,23.20
2018-08-13T12:11:56.471Z,24.20
2018-08-13T12:14:25.205Z,24.10
2018-08-13T12:16:53.658Z,23.60
2018-08-13T12:19:22.141Z,23.10
2018-08-13T12:21:50.622Z,22.40
2018-08-13T12:24:19.082Z,21.50
2018-08-13T12:26:47.559Z,21.00
2018-08-13T12:29:16.078Z,20.80
2018-08-13T12:31:44.559Z,20.50
2018-08-13T12:34:13.062Z,20.10
2018-08-13T12:36:41.550Z,19.80
2018-08-13T12:39:11.817Z,19.80
2018-08-13T12:41:40.342Z,19.90
2018-08-13T12:44:08.889Z,20.00
2018-08-13T12:46:37.361Z,20.10
2018-08-13T12:49:05.968Z,20.30
2018-08-13T12:51:34.426Z,20.40
2018-08-13T12:54:02.924Z,20.50
2018-08-13T12:56:31.426Z,20.70
2018-08-13T12:58:59.910Z,20.80
2018-08-13T13:01:28.359Z,20.90
2018-08-13T13:03:56.928Z,21.30
2018-08-13T13:06:25.456Z,22.10
2018-08-13T13:08:54.014Z,22.20
2018-08-13T13:11:22.481Z,22.20
2018-08-13T13:13:50.941Z,22.20
2018-08-13T13:16:19.391Z,22.40
2018-08-13T13:18:47.846Z,22.80
2018-08-13T13:21:16.341Z,23.30
2018-08-13T13:23:44.805Z,23.20
2018-08-13T13:26:13.253Z,22.70
2018-08-13T13:28:42.098Z,22.50
2018-08-13T13:31:10.877Z,22.50
2018-08-13T13:33:39.371Z,22.30
2018-08-13T13:36:07.893Z,22.20
2018-08-13T13:38:36.389Z,22.40
2018-08-13T13:41:04.882Z,22.50
2018-08-13T13:43:33.373Z,22.60
2018-08-13T13:46:01.847Z,22.70
2018-08-13T13:48:30.289Z,22.80
2018-08-13T13:50:58.842Z,22.90
2018-08-13T13:53:27.318Z,23.30
2018-08-13T13:55:55.821Z,23.80
2018-08-13T13:58:24.322Z,24.10
2018-08-13T14:00:52.763Z,24.10
2018-08-13T14:03:21.244Z,24.10
2018-08-13T14:05:49.885Z,24.40
2018-08-13T14:08:18.358Z,24.30
2018-08-13T14:10:46.784Z,24.60
2018-08-13T14:13:15.245Z,24.80
2018-08-13T14:15:43.706Z,24.90
2018-08-13T14:18:12.233Z,24.80
2018-08-13T14:20:40.683Z,24.30
2018-08-13T14:23:09.187Z,24.50
2018-08-13T14:25:37.657Z,24.90
2018-08-13T14:28:06.270Z,24.80
2018-08-13T14:30:34.700Z,24.50
2018-08-13T14:33:03.228Z,24.10
2018-08-13T14:35:31.701Z,23.70
2018-08-13T14:38:00.145Z,23.60
2018-08-13T14:40:28.627Z,23.50
2018-08-13T14:42:57.108Z,23.40
2018-08-13T14:45:25.555Z,23.20
2018-08-13T14:47:54.002Z,23.10
2018-08-13T14:50:22.561Z,23.10
2018-08-13T14:52:51.014Z,23.10
2018-08-13T14:55:21.057Z,23.00
2018-08-13T14:57:49.573Z,23.00
2018-08-13T15:00:23.218Z,23.10
2018-08-13T15:02:52.412Z,23.20
2018-08-13T15:05:20.936Z,23.30
2018-08-13T15:07:49.465Z,23.70
2018-08-13T15:10:22.121Z,24.30
2018-08-13T15:12:50.711Z,24.90
2018-08-13T15:15:19.233Z,25.30
2018-08-13T15:17:48.130Z,25.20
2018-08-13T15:20:23.369Z,24.70
2018-08-13T15:22:51.885Z,24.20
2018-08-13T15:25:20.474Z,24.20
2018-08-13T15:27:49.085Z,24.30
2018-08-13T15:30:18.231Z,24.20
2018-08-13T15:32:47.664Z,24.00
2018-08-13T15:35:16.193Z,24.10
2018-08-13T15:37:45.341Z,24.30
2018-08-13T15:40:13.843Z,24.30
2018-08-13T15:42:42.661Z,23.90
2018-08-13T15:45:14.581Z,23.70
2018-08-13T15:47:43.467Z,23.60
2018-08-13T15:50:14.114Z,23.70
2018-08-13T15:52:43.172Z,23.70
2018-08-13T15:55:11.877Z,23.90
2018-08-13T15:57:42.002Z,23.60
2018-08-13T16:00:12.541Z,23.60
2018-08-13T16:02:41.394Z,23.60
2018-08-13T16:05:11.163Z,23.60
2018-08-13T16:07:40.068Z,23.60
2018-08-13T16:10:11.702Z,23.50
2018-08-13T16:12:40.340Z,23.40
2018-08-13T16:15:09.243Z,23.10
2018-08-13T16:17:38.335Z,23.00
2018-08-13T16:20:10.165Z,22.80
2018-08-13T16:22:39.134Z,22.70
2018-08-13T16:25:08.053Z,22.70
2018-08-13T16:27:36.757Z,22.80
2018-08-13T16:30:15.665Z,22.90
2018-08-13T16:32:44.759Z,23.00
2018-08-13T16:35:13.238Z,23.00
2018-08-13T16:37:41.689Z,22.90
2018-08-13T16:40:10.221Z,22.90
2018-08-13T16:42:38.701Z,22.80
2018-08-13T16:45:08.001Z,22.60
2018-08-13T16:47:36.753Z,22.50
2018-08-13T16:50:13.320Z,22.60
2018-08-13T16:52:41.909Z,22.60
2018-08-13T16:55:11.330Z,22.60
2018-08-13T16:57:39.986Z,22.60
2018-08-13T17:00:10.341Z,22.60
2018-08-13T17:02:38.932Z,22.60
2018-08-13T17:05:09.853Z,22.40
2018-08-13T17:07:38.630Z,22.30
2018-08-13T17:10:09.615Z,22.20
2018-08-13T17:12:38.116Z,22.10
2018-08-13T17:15:08.463Z,22.00
2018-08-13T17:17:37.371Z,22.00
2018-08-13T17:20:07.085Z,22.10
2018-08-13T17:22:35.594Z,22.30
2018-08-13T17:25:04.634Z,22.40
2018-08-13T17:27:33.129Z,22.50
2018-08-13T17:30:01.629Z,22.50
2018-08-13T17:32:30.081Z,22.50
2018-08-13T17:34:58.571Z,22.50
2018-08-13T17:37:27.062Z,22.60
2018-08-13T17:39:55.560Z,22.50
2018-08-13T17:42:24.030Z,22.50
2018-08-13T17:44:52.509Z,22.40
2018-08-13T17:47:21.272Z,22.10
2018-08-13T17:49:49.790Z,22.10
2018-08-13T17:52:18.332Z,22.00
2018-08-13T17:54:46.822Z,22.00
2018-08-13T17:57:15.296Z,22.20
2018-08-13T17:59:43.785Z,22.20
2018-08-13T18:02:12.342Z,22.20
2018-08-13T18:04:40.745Z,22.10
2018-08-13T18:07:09.194Z,22.10
2018-08-13T18:09:37.736Z,22.00
2018-08-13T18:12:06.271Z,21.90
2018-08-13T18:14:34.736Z,21.70
2018-08-13T18:17:03.225Z,21.60
2018-08-13T18:19:31.707Z,21.50
2018-08-13T18:22:00.167Z,21.50
2018-08-13T18:24:28.653Z,21.50
2018-08-13T18:26:57.078Z,21.50
2018-08-13T18:29:25.557Z,21.40
2018-08-13T18:31:54.026Z,21.30
2018-08-13T18:34:22.487Z,21.20
2018-08-13T18:36:50.925Z,21.10
2018-08-13T18:39:19.421Z,21.00
2018-08-13T18:41:47.920Z,20.90
2018-08-13T18:44:16.386Z,20.80
2018-08-13T18:46:44.887Z,20.80
2018-08-13T18:49:13.512Z,20.70
2018-08-13T18:51:41.997Z,20.60
2018-08-13T18:54:10.553Z,20.60
2018-08-13T18:56:39.040Z,20.60
2018-08-13T18:59:07.568Z,20.40
2018-08-13T19:01:36.106Z,20.40
2018-08-13T19:04:04.713Z,20.30
2018-08-13T19:06:33.309Z,20.30
2018-08-13T19:09:01.852Z,20.20
2018-08-13T19:11:30.280Z,20.20
2018-08-13T19:13:58.776Z,20.10
2018-08-13T19:16:27.259Z,20.00
2018-08-13T19:18:55.796Z,20.00
2018-08-13T19:21:24.286Z,20.00
2018-08-13T19:23:52.781Z,20.00
2018-08-13T19:26:21.244Z,19.90
2018-08-13T19:28:49.722Z,19.90
2018-08-13T19:31:18.173Z,19.80
2018-08-13T19:33:46.638Z,19.70
2018-08-13T19:36:15.157Z,19.60
2018-08-13T19:38:43.665Z,19.60
2018-08-13T19:41:12.120Z,19.50
2018-08-13T19:43:40.667Z,19.50
2018-08-13T19:46:09.166Z,19.50
2018-08-13T19:48:37.632Z,19.40
2018-08-13T19:51:06.154Z,19.40
2018-08-13T19:53:34.619Z,19.30
2018-08-13T19:56:03.110Z,19.20
2018-08-13T19:58:31.563Z,19.20
2018-08-13T20:01:00.034Z,19.10
2018-08-13T20:03:28.530Z,19.20
2018-08-13T20:05:57.032Z,19.10
2018-08-13T20:08:25.522Z,19.10
2018-08-13T20:10:53.972Z,19.00
2018-08-13T20:13:22.433Z,18.90
2018-08-13T20:15:50.946Z,18.90
2018-08-13T20:18:19.405Z,18.80
2018-08-13T20:20:47.865Z,18.80
2018-08-13T20:23:16.373Z,18.80
2018-08-13T20:25:44.890Z,18.70
2018-08-13T20:28:13.378Z,18.70
2018-08-13T20:30:41.858Z,18.60
2018-08-13T20:33:10.336Z,18.60
2018-08-13T20:35:38.821Z,18.60
2018-08-13T20:38:07.325Z,18.50
2018-08-13T20:40:35.825Z,18.50
2018-08-13T20:43:04.312Z,18.60
2018-08-13T20:45:32.817Z,18.50
2018-08-13T20:48:01.237Z,18.50
2018-08-13T20:50:29.721Z,18.60
2018-08-13T20:52:58.224Z,18.50
2018-08-13T20:55:29.095Z,18.50
2018-08-13T20:58:04.264Z,18.40
2018-08-13T21:00:32.933Z,18.40
2018-08-13T21:04:04.504Z,18.40
2018-08-13T21:06:33.043Z,18.40
2018-08-13T21:09:01.556Z,18.30
2018-08-13T21:11:30.078Z,18.30
2018-08-13T21:13:58.555Z,18.20
2018-08-13T21:16:27.009Z,18.10
2018-08-13T21:18:55.506Z,18.10
2018-08-13T21:21:23.969Z,18.10
2018-08-13T21:23:52.392Z,18.10
2018-08-13T21:26:20.855Z,18.00
2018-08-13T21:28:49.345Z,18.00
2018-08-13T21:31:17.859Z,18.10
2018-08-13T21:33:46.382Z,18.00
2018-08-13T21:36:14.865Z,18.00
2018-08-13T21:38:43.330Z,18.00
2018-08-13T21:41:11.784Z,17.90
2018-08-13T21:43:40.280Z,17.90
2018-08-13T21:46:08.740Z,17.90
2018-08-13T21:48:37.209Z,17.70
2018-08-13T21:51:05.924Z,17.70
2018-08-13T21:53:34.398Z,17.60
2018-08-13T21:56:02.880Z,17.60
2018-08-13T21:58:31.363Z,17.70
2018-08-13T22:02:08.061Z,17.60
2018-08-13T22:04:36.461Z,17.60
2018-08-13T22:07:04.958Z,17.60
2018-08-13T22:09:33.469Z,17.60
2018-08-13T22:12:02.025Z,17.60
2018-08-13T22:14:30.563Z,17.60
2018-08-13T22:16:59.019Z,17.60
2018-08-13T22:19:27.505Z,17.60
2018-08-13T22:21:56.002Z,17.50
2018-08-13T22:24:35.860Z,17.40
2018-08-13T22:27:04.424Z,17.40
2018-08-13T22:29:32.937Z,17.50
2018-08-13T22:32:01.530Z,17.60
2018-08-13T22:34:30.017Z,17.60
2018-08-13T22:36:58.465Z,17.60
2018-08-13T22:39:26.937Z,17.60
2018-08-13T22:41:55.403Z,17.60
2018-08-13T22:44:23.864Z,17.60
2018-08-13T22:46:52.340Z,17.60
2018-08-13T22:49:21.009Z,17.60
2018-08-13T22:51:49.753Z,17.60
2018-08-13T22:54:18.197Z,17.60
2018-08-13T22:56:46.654Z,17.60
2018-08-13T22:59:15.112Z,17.60
2018-08-13T23:01:43.557Z,17.60
2018-08-13T23:04:12.003Z,17.60
2018-08-13T23:06:40.473Z,17.60
2018-08-13T23:09:10.573Z,17.50
2018-08-13T23:11:39.044Z,17.50
2018-08-13T23:14:07.523Z,17.50
2018-08-13T23:16:36.053Z,17.40
2018-08-13T23:19:04.610Z,17.40
2018-08-13T23:21:33.073Z,17.30
2018-08-13T23:24:01.575Z,17.40
2018-08-13T23:26:30.041Z,17.40
2018-08-13T23:28:58.536Z,17.40
2018-08-13T23:31:26.980Z,17.40
2018-08-13T23:33:55.454Z,17.40
2018-08-13T23:36:23.898Z,17.50
2018-08-13T23:38:52.361Z,17.50
2018-08-13T23:41:20.876Z,17.50
2018-08-13T23:43:49.326Z,17.60
2018-08-13T23:46:17.771Z,17.70
2018-08-13T23:48:46.261Z,17.60
2018-08-13T23:51:14.758Z,17.70
2018-08-13T23:53:43.221Z,17.70
2018-08-13T23:56:11.833Z,17.60
2018-08-13T23:58:40.337Z,17.70
